Time;durP1;ratioP1;P1;durP2;ratioP2;P2;SDS_P1;SDS_P2;PMS_P1;PMS_P2;Temp;Humidity;BMP_temperature;BMP_pressure;BME280_temperature;BME280_humidity;BME280_pressure;Samples;Min_cycle;Max_cycle;Signal;HPM_P1;HPM_P2
2021/07/09 00:01:44;;;;;;;7.63;6.65;;;20.70;94.50;;;;;;6139018;23;20471;-86
2021/07/09 00:04:11;;;;;;;10.57;7.88;;;20.70;94.50;;;;;;6156190;23;20127;-86
2021/07/09 00:06:36;;;;;;;9.25;7.13;;;20.70;94.50;;;;;;6131259;23;20020;-87
2021/07/09 00:09:06;;;;;;;8.20;7.10;;;20.70;94.50;;;;;;6131548;23;20005;-85
2021/07/09 00:11:32;;;;;;;9.35;6.90;;;20.60;94.50;;;;;;6183046;23;20017;-86
2021/07/09 00:13:58;;;;;;;9.15;6.60;;;20.60;94.50;;;;;;6132062;23;20095;-86
2021/07/09 00:16:24;;;;;;;7.65;6.82;;;20.60;94.60;;;;;;6157722;23;20379;-85
2021/07/09 00:18:50;;;;;;;8.70;6.90;;;20.60;94.60;;;;;;6158164;23;20105;-86
2021/07/09 00:21:17;;;;;;;9.95;7.45;;;20.60;94.70;;;;;;6184015;23;20079;-86
2021/07/09 00:23:44;;;;;;;9.65;7.18;;;20.50;94.70;;;;;;6133201;23;20012;-86
2021/07/09 00:26:10;;;;;;;10.00;7.30;;;20.50;94.70;;;;;;6158103;23;20067;-86
2021/07/09 00:28:36;;;;;;;8.30;7.40;;;20.50;94.70;;;;;;6157734;23;20009;-85
2021/07/09 00:31:02;;;;;;;9.43;7.30;;;20.50;94.70;;;;;;6109187;23;20005;-86
2021/07/09 00:33:28;;;;;;;10.00;7.80;;;20.50;94.70;;;;;;6184185;23;20064;-86
2021/07/09 00:35:53;;;;;;;9.02;8.10;;;20.50;94.70;;;;;;6132447;23;20427;-85
2021/07/09 00:38:22;;;;;;;9.10;7.55;;;20.40;94.70;;;;;;6155991;23;20004;-86
2021/07/09 00:40:47;;;;;;;9.32;8.05;;;20.40;94.70;;;;;;6131580;23;20031;-86
2021/07/09 00:43:13;;;;;;;9.70;8.30;;;20.40;94.80;;;;;;6107212;23;19997;-84
2021/07/09 00:45:39;;;;;;;10.57;7.75;;;20.40;94.80;;;;;;6155743;23;20485;-86
2021/07/09 00:48:05;;;;;;;10.05;8.00;;;20.40;94.80;;;;;;6132068;23;20020;-85
2021/07/09 00:50:31;;;;;;;10.65;8.55;;;20.30;94.80;;;;;;6131071;23;20016;-85
2021/07/09 00:52:56;;;;;;;12.70;9.02;;;20.30;94.80;;;;;;6157809;23;20005;-84
2021/07/09 00:55:22;;;;;;;10.38;8.25;;;20.30;94.80;;;;;;6156199;23;20009;-86
2021/07/09 00:57:50;;;;;;;11.73;9.05;;;20.20;94.80;;;;;;6107462;23;20100;-83
2021/07/09 01:00:17;;;;;;;11.25;8.55;;;20.20;94.80;;;;;;6156647;23;20442;-86
2021/07/09 01:02:45;;;;;;;10.32;8.38;;;20.20;94.80;;;;;;6131894;23;20013;-86
2021/07/09 01:05:13;;;;;;;10.85;8.77;;;20.20;94.80;;;;;;6156813;23;20009;-84
2021/07/09 01:07:39;;;;;;;10.55;9.45;;;20.10;94.70;;;;;;6156681;23;20035;-85
2021/07/09 01:10:17;;;;;;;11.50;8.77;;;20.10;94.70;;;;;;6183379;23;20006;-84
2021/07/09 01:12:44;;;;;;;10.40;8.60;;;20.10;94.70;;;;;;6158319;23;20005;-86
2021/07/09 01:15:14;;;;;;;11.52;9.23;;;20.00;94.80;;;;;;6159541;23;20043;-85
2021/07/09 01:17:40;;;;;;;12.90;9.50;;;20.00;94.70;;;;;;6159357;23;20040;-84
2021/07/09 01:20:11;;;;;;;10.57;9.27;;;20.00;94.70;;;;;;6134882;23;20015;-85
2021/07/09 01:22:45;;;;;;;10.30;9.00;;;19.90;94.70;;;;;;6157650;23;20001;-86
2021/07/09 01:25:27;;;;;;;11.68;9.00;;;19.90;94.70;;;;;;6184007;23;20012;-85
2021/07/09 01:28:04;;;;;;;11.13;9.18;;;19.80;94.70;;;;;;6157972;23;20048;-86
2021/07/09 01:30:29;;;;;;;11.18;9.18;;;19.80;94.70;;;;;;6206117;23;20020;-86
2021/07/09 01:32:56;;;;;;;12.52;9.73;;;19.70;94.70;;;;;;6189283;23;20004;-86
2021/07/09 01:35:27;;;;;;;9.77;8.30;;;19.70;94.70;;;;;;6214186;23;20430;-86
2021/07/09 01:37:55;;;;;;;13.02;9.10;;;19.70;94.80;;;;;;6215888;23;20394;-85
2021/07/09 01:40:22;;;;;;;11.15;9.40;;;19.70;94.80;;;;;;6215796;23;20509;-86
2021/07/09 01:42:47;;;;;;;11.35;9.20;;;19.70;94.80;;;;;;6216512;23;20000;-85
2021/07/09 01:45:13;;;;;;;12.57;9.80;;;19.60;94.80;;;;;;6189473;23;20100;-85
2021/07/09 01:47:40;;;;;;;12.02;9.55;;;19.60;94.80;;;;;;6197985;23;20012;-84
2021/07/09 01:50:06;;;;;;;13.18;9.77;;;19.60;94.80;;;;;;6236093;23;20008;-86
2021/07/09 01:52:32;;;;;;;12.15;9.57;;;19.50;94.90;;;;;;6213359;23;19989;-87
2021/07/09 01:54:59;;;;;;;11.57;9.43;;;19.50;94.90;;;;;;6242761;23;20064;-87
2021/07/09 01:57:28;;;;;;;11.25;8.82;;;19.50;94.90;;;;;;6238848;23;20004;-89
2021/07/09 01:59:56;;;;;;;11.85;9.15;;;19.50;94.90;;;;;;6235583;23;20004;-87
2021/07/09 02:03:03;;;;;;;12.18;9.60;;;19.50;94.90;;;;;;6237015;23;20011;-86
2021/07/09 02:05:32;;;;;;;12.65;9.77;;;19.40;95.00;;;;;;6232925;23;20001;-85
2021/07/09 02:07:58;;;;;;;12.63;9.70;;;19.40;95.00;;;;;;6218033;23;20092;-86
2021/07/09 02:10:27;;;;;;;11.20;9.63;;;19.40;95.00;;;;;;6190372;23;20047;-85
2021/07/09 02:12:58;;;;;;;12.32;10.15;;;19.40;95.10;;;;;;6214415;23;20076;-85
2021/07/09 02:15:27;;;;;;;13.45;10.20;;;19.40;95.10;;;;;;6215545;23;20024;-85
2021/07/09 02:17:53;;;;;;;13.45;10.13;;;19.30;95.10;;;;;;6216013;23;20000;-85
2021/07/09 02:20:23;;;;;;;12.85;10.10;;;19.30;95.10;;;;;;6215036;23;20124;-85
2021/07/09 02:22:48;;;;;;;12.82;10.07;;;19.30;95.10;;;;;;6214136;23;19997;-86
2021/07/09 02:25:16;;;;;;;12.40;9.95;;;19.30;95.10;;;;;;6215224;23;20013;-86
2021/07/09 02:27:46;;;;;;;16.27;10.45;;;19.30;95.10;;;;;;6213633;23;20066;-86
2021/07/09 02:30:13;;;;;;;13.43;10.02;;;19.20;95.10;;;;;;6213846;23;20013;-86
2021/07/09 02:32:43;;;;;;;13.93;10.60;;;19.20;95.10;;;;;;6213693;23;20418;-86
2021/07/09 02:35:15;;;;;;;12.73;10.18;;;19.20;95.10;;;;;;6188758;23;20012;-85
2021/07/09 02:37:42;;;;;;;15.35;10.52;;;19.20;95.10;;;;;;6213696;23;20374;-85
2021/07/09 02:40:12;;;;;;;12.68;9.50;;;19.20;95.10;;;;;;6189583;23;20016;-85
2021/07/09 02:42:38;;;;;;;12.93;10.38;;;19.20;95.30;;;;;;6215418;23;20001;-86
2021/07/09 02:45:05;;;;;;;12.57;9.98;;;19.10;95.10;;;;;;6188525;23;20012;-85
2021/07/09 02:47:31;;;;;;;13.43;9.65;;;19.10;95.00;;;;;;6188837;23;20008;-86
2021/07/09 02:49:56;;;;;;;12.43;10.65;;;19.10;95.10;;;;;;6187805;23;20388;-85
2021/07/09 02:52:22;;;;;;;12.95;9.57;;;19.10;95.10;;;;;;6212339;23;20015;-86
2021/07/09 02:54:48;;;;;;;14.57;10.27;;;19.10;95.10;;;;;;6188542;23;20039;-85
2021/07/09 02:57:13;;;;;;;11.02;9.32;;;19.00;95.00;;;;;;6188871;23;20009;-85
2021/07/09 02:59:39;;;;;;;15.18;10.57;;;19.00;95.00;;;;;;6188138;23;20001;-85
2021/07/09 03:02:05;;;;;;;13.05;10.68;;;19.00;95.00;;;;;;6188523;23;20062;-85
2021/07/09 03:04:30;;;;;;;11.98;9.88;;;19.00;95.00;;;;;;6163828;23;20004;-86
2021/07/09 03:06:56;;;;;;;12.52;10.00;;;18.90;95.10;;;;;;6189053;23;20012;-85
2021/07/09 03:09:22;;;;;;;12.35;10.27;;;19.00;95.10;;;;;;6213883;23;20008;-85
2021/07/09 03:11:47;;;;;;;11.85;9.57;;;18.90;95.10;;;;;;6213444;23;20080;-85
2021/07/09 03:14:13;;;;;;;12.32;9.98;;;18.90;95.20;;;;;;6213566;23;20031;-86
2021/07/09 03:16:39;;;;;;;11.57;10.02;;;18.90;95.20;;;;;;6187832;23;20051;-86
2021/07/09 03:19:06;;;;;;;12.65;10.13;;;18.90;95.20;;;;;;6213446;23;20000;-85
2021/07/09 03:21:34;;;;;;;12.88;10.25;;;18.90;95.20;;;;;;6213412;23;20035;-86
2021/07/09 03:23:59;;;;;;;13.82;10.82;;;18.90;95.30;;;;;;6188394;23;20423;-85
2021/07/09 03:26:25;;;;;;;13.75;10.98;;;18.80;95.20;;;;;;6215197;23;20007;-87
2021/07/09 03:28:57;;;;;;;11.57;9.98;;;18.80;95.20;;;;;;6187607;23;20127;-84
2021/07/09 03:31:32;;;;;;;11.55;9.45;;;18.80;95.20;;;;;;6214942;23;20086;-85
2021/07/09 03:33:58;;;;;;;13.07;10.10;;;18.80;95.20;;;;;;6213498;23;20020;-84
2021/07/09 03:36:25;;;;;;;13.25;10.60;;;18.70;95.10;;;;;;6213504;23;20005;-83
2021/07/09 03:38:52;;;;;;;13.48;9.60;;;18.70;95.10;;;;;;6188118;23;20000;-84
2021/07/09 03:41:17;;;;;;;11.82;10.13;;;18.70;95.10;;;;;;6214922;23;20001;-85
2021/07/09 03:43:44;;;;;;;13.82;10.02;;;18.70;95.10;;;;;;6187809;23;20489;-84
2021/07/09 03:46:12;;;;;;;15.48;9.65;;;18.60;95.10;;;;;;6213232;23;20060;-84
2021/07/09 03:48:38;;;;;;;12.40;9.65;;;18.60;95.00;;;;;;6213382;23;20322;-84
2021/07/09 03:51:06;;;;;;;12.25;10.05;;;18.60;95.10;;;;;;6188282;23;20346;-84
2021/07/09 03:53:33;;;;;;;12.77;9.80;;;18.60;95.10;;;;;;6213091;23;20040;-86
2021/07/09 03:55:59;;;;;;;12.90;9.60;;;18.50;95.10;;;;;;6187902;23;20001;-85
2021/07/09 03:58:25;;;;;;;13.57;10.35;;;18.50;95.20;;;;;;6188058;23;20023;-88
2021/07/09 04:00:51;;;;;;;13.70;9.95;;;18.50;95.20;;;;;;6187518;23;20458;-86
2021/07/09 04:03:17;;;;;;;11.93;9.15;;;18.40;95.30;;;;;;6213466;23;20023;-85
2021/07/09 04:05:43;;;;;;;16.35;9.82;;;18.40;95.30;;;;;;6213033;23;20008;-84
2021/07/09 04:08:10;;;;;;;13.93;9.57;;;18.40;95.30;;;;;;6212939;23;20033;-90
2021/07/09 04:10:36;;;;;;;13.00;9.88;;;18.40;95.40;;;;;;6164268;23;20013;-86
2021/07/09 04:13:03;;;;;;;12.00;9.77;;;18.40;95.50;;;;;;6187900;23;20019;-86
2021/07/09 04:15:29;;;;;;;13.32;9.60;;;18.40;95.50;;;;;;6212461;23;20011;-84
2021/07/09 04:17:54;;;;;;;12.63;10.00;;;18.40;95.60;;;;;;6212901;23;20312;-85
2021/07/09 04:20:20;;;;;;;13.05;9.80;;;18.30;95.60;;;;;;6163390;23;20013;-85
2021/07/09 04:22:46;;;;;;;14.75;10.40;;;18.30;95.50;;;;;;6212845;23;20004;-84
2021/07/09 04:25:12;;;;;;;12.00;9.57;;;18.30;95.50;;;;;;6188331;23;20004;-84
2021/07/09 04:27:39;;;;;;;12.93;9.52;;;18.30;95.60;;;;;;6214432;23;20019;-85
2021/07/09 04:30:07;;;;;;;13.90;9.55;;;18.20;95.60;;;;;;6193663;23;20386;-84
2021/07/09 04:32:33;;;;;;;14.23;9.60;;;18.20;96.00;;;;;;6158222;23;19997;-84
2021/07/09 04:34:59;;;;;;;12.25;9.38;;;18.20;95.80;;;;;;6133667;23;20015;-84
2021/07/09 04:37:25;;;;;;;14.32;9.88;;;18.20;95.90;;;;;;6133904;23;20092;-85
2021/07/09 04:39:50;;;;;;;12.35;9.60;;;18.10;96.00;;;;;;6158189;23;20474;-84
2021/07/09 04:42:16;;;;;;;12.88;9.52;;;18.20;96.10;;;;;;6134229;23;20001;-84
2021/07/09 04:44:42;;;;;;;13.30;9.48;;;18.20;96.10;;;;;;6158172;23;20009;-84
2021/07/09 04:47:08;;;;;;;12.80;9.65;;;18.10;96.10;;;;;;6159538;23;20013;-84
2021/07/09 04:49:34;;;;;;;13.48;9.75;;;18.20;96.20;;;;;;6134484;23;20016;-84
2021/07/09 04:52:00;;;;;;;13.48;10.23;;;18.20;96.30;;;;;;6134721;23;20033;-84
2021/07/09 04:54:25;;;;;;;12.65;9.68;;;18.20;96.30;;;;;;6161611;23;20034;-85
2021/07/09 04:56:51;;;;;;;14.48;11.15;;;18.20;96.30;;;;;;6133759;23;20005;-85
2021/07/09 04:59:17;;;;;;;14.35;10.48;;;18.20;96.30;;;;;;6133812;23;20051;-85
2021/07/09 05:01:43;;;;;;;15.70;11.32;;;18.20;96.40;;;;;;6109236;23;20095;-85
2021/07/09 05:04:09;;;;;;;15.35;11.38;;;18.20;96.40;;;;;;6133493;23;20005;-84
2021/07/09 05:06:36;;;;;;;14.05;10.57;;;18.20;96.40;;;;;;6158832;23;20019;-86
2021/07/09 05:09:04;;;;;;;15.90;10.98;;;18.20;96.50;;;;;;6109720;23;20053;-85
2021/07/09 05:11:30;;;;;;;13.07;10.93;;;18.20;96.50;;;;;;6158458;23;19997;-84
2021/07/09 05:13:56;;;;;;;13.90;10.52;;;18.20;96.60;;;;;;6134202;23;20320;-85
2021/07/09 05:16:22;;;;;;;15.48;10.90;;;18.30;96.60;;;;;;6158809;23;20001;-85
2021/07/09 05:18:47;;;;;;;12.75;10.80;;;18.30;96.60;;;;;;6109785;23;20005;-84
2021/07/09 05:21:13;;;;;;;16.58;12.50;;;18.30;96.70;;;;;;6110030;23;20096;-84
2021/07/09 05:23:39;;;;;;;16.27;12.48;;;18.30;96.70;;;;;;6134408;23;20075;-84
2021/07/09 05:26:05;;;;;;;14.65;11.10;;;18.30;96.70;;;;;;6158150;23;20083;-85
2021/07/09 05:28:30;;;;;;;14.40;10.75;;;18.30;96.70;;;;;;6157300;23;20407;-84
2021/07/09 05:30:56;;;;;;;12.07;9.88;;;18.30;96.80;;;;;;6166856;23;20027;-85
2021/07/09 05:33:30;;;;;;;13.48;10.18;;;18.30;96.80;;;;;;6180070;23;20015;-86
2021/07/09 05:35:58;;;;;;;12.50;9.98;;;18.40;96.80;;;;;;6184116;23;20023;-85
2021/07/09 05:38:26;;;;;;;12.32;9.93;;;18.40;96.80;;;;;;6161330;23;19993;-86
2021/07/09 05:40:53;;;;;;;12.38;9.63;;;18.40;96.70;;;;;;6180958;23;20008;-85
2021/07/09 05:43:20;;;;;;;12.73;8.32;;;18.40;96.70;;;;;;6179842;23;20001;-85
2021/07/09 05:45:48;;;;;;;12.20;8.90;;;18.40;96.80;;;;;;6135990;23;20037;-85
2021/07/09 05:48:14;;;;;;;11.00;8.32;;;18.40;96.70;;;;;;6203652;23;20012;-84
2021/07/09 05:50:41;;;;;;;11.68;8.80;;;18.40;96.70;;;;;;6133942;23;20025;-85
2021/07/09 05:53:07;;;;;;;10.20;8.52;;;18.40;97.00;;;;;;6158570;23;20005;-85
2021/07/09 05:55:33;;;;;;;11.48;8.20;;;18.40;96.80;;;;;;6159594;23;20031;-85
2021/07/09 05:57:59;;;;;;;11.07;8.55;;;18.40;96.80;;;;;;6159014;23;20080;-83
2021/07/09 06:00:24;;;;;;;9.73;7.28;;;18.50;96.80;;;;;;6159847;23;20017;-84
2021/07/09 06:02:50;;;;;;;9.73;7.80;;;18.50;96.80;;;;;;6162347;23;20005;-84
2021/07/09 06:05:18;;;;;;;10.02;7.82;;;18.50;96.80;;;;;;6138312;23;20434;-85
2021/07/09 06:07:45;;;;;;;9.48;6.97;;;18.50;96.80;;;;;;6162489;23;20013;-86
2021/07/09 06:10:13;;;;;;;8.00;6.85;;;18.50;96.80;;;;;;6191613;23;20029;-84
2021/07/09 06:12:38;;;;;;;9.35;6.15;;;18.50;96.90;;;;;;6164531;23;20009;-85
2021/07/09 06:15:05;;;;;;;7.47;5.53;;;18.60;96.90;;;;;;6116059;23;20045;-84
2021/07/09 06:17:31;;;;;;;8.98;5.38;;;18.60;96.90;;;;;;6163468;23;20001;-84
2021/07/09 06:20:06;;;;;;;6.80;4.90;;;18.60;96.90;;;;;;6163634;23;20012;-85
2021/07/09 06:22:58;;;;;;;6.78;4.47;;;18.60;96.90;;;;;;6139302;23;20032;-86
2021/07/09 06:25:25;;;;;;;6.75;4.45;;;18.70;96.90;;;;;;6146870;23;20009;-85
2021/07/09 06:28:00;;;;;;;6.97;4.60;;;18.70;97.00;;;;;;6162869;23;20332;-85
2021/07/09 06:30:25;;;;;;;6.15;4.55;;;18.70;97.00;;;;;;6208809;23;20020;-85
2021/07/09 06:32:53;;;;;;;7.07;4.43;;;18.70;96.90;;;;;;6193697;23;20445;-85
2021/07/09 06:35:28;;;;;;;6.13;4.22;;;18.80;97.00;;;;;;6217840;23;20012;-86
2021/07/09 06:38:02;;;;;;;5.50;4.13;;;18.80;97.00;;;;;;6219133;23;20011;-86
2021/07/09 06:40:34;;;;;;;5.55;4.38;;;18.80;97.00;;;;;;6217890;23;20032;-85
2021/07/09 06:43:02;;;;;;;7.53;4.60;;;18.80;97.00;;;;;;6217905;23;20004;-86
2021/07/09 06:45:28;;;;;;;4.57;3.88;;;18.90;97.00;;;;;;6217497;23;20024;-86
2021/07/09 06:47:57;;;;;;;6.22;3.88;;;18.90;97.00;;;;;;6219038;23;20076;-87
2021/07/09 06:50:46;;;;;;;5.75;4.22;;;19.00;97.00;;;;;;6192472;23;20009;-86
2021/07/09 06:53:23;;;;;;;6.13;4.60;;;19.00;96.80;;;;;;6198115;23;20011;-85
2021/07/09 06:55:49;;;;;;;10.60;4.28;;;19.10;96.60;;;;;;6217986;23;20087;-87
2021/07/09 06:58:15;;;;;;;10.20;4.32;;;19.10;96.60;;;;;;6217839;23;20000;-86
2021/07/09 07:00:43;;;;;;;5.30;3.78;;;19.10;96.50;;;;;;6217773;23;20004;-87
2021/07/09 07:03:08;;;;;;;5.35;3.92;;;19.20;96.50;;;;;;6216885;23;20001;-86
2021/07/09 07:05:34;;;;;;;5.10;3.88;;;19.20;96.50;;;;;;6193193;23;20450;-86
2021/07/09 07:08:17;;;;;;;5.82;4.10;;;19.30;96.60;;;;;;6192740;23;20009;-86
2021/07/09 07:11:15;;;;;;;;;;;;;;;;;;;;;
2021/07/09 07:14:43;;;;;;;4.93;4.00;;;19.40;96.60;;;;;;6219300;23;20396;-92
2021/07/09 07:16:50;;;;;;;6.30;4.10;;;19.50;96.60;;;;;;6203342;23;20004;-83
2021/07/09 07:19:15;;;;;;;6.65;4.40;;;19.60;96.60;;;;;;6210870;23;20374;-83
2021/07/09 07:21:41;;;;;;;7.40;4.45;;;19.60;96.50;;;;;;6208693;23;20004;-83
2021/07/09 07:24:10;;;;;;;5.53;4.47;;;19.70;96.40;;;;;;6209866;23;20009;-84
2021/07/09 07:26:36;;;;;;;5.95;4.32;;;19.80;96.30;;;;;;6213663;23;20012;-83
2021/07/09 07:29:07;;;;;;;6.68;4.85;;;19.80;96.10;;;;;;6205533;23;20339;-83
2021/07/09 07:31:44;;;;;;;5.82;4.43;;;19.90;96.10;;;;;;6156850;23;20016;-82
2021/07/09 07:34:09;;;;;;;7.82;4.90;;;20.00;96.10;;;;;;6155120;23;20619;-83
2021/07/09 07:36:38;;;;;;;6.90;5.10;;;20.00;96.00;;;;;;6155372;23;20009;-82
2021/07/09 07:39:04;;;;;;;7.80;5.88;;;20.10;96.00;;;;;;6156532;23;20063;-83
2021/07/09 07:41:30;;;;;;;9.38;5.28;;;20.20;95.90;;;;;;6156760;23;20327;-82
2021/07/09 07:44:00;;;;;;;8.90;6.55;;;20.30;95.80;;;;;;6156464;23;20418;-83
2021/07/09 07:46:38;;;;;;;9.00;6.30;;;20.30;95.40;;;;;;6109441;23;20013;-83
2021/07/09 07:49:04;;;;;;;8.55;5.90;;;20.40;95.00;;;;;;6183407;23;20278;-82
2021/07/09 07:51:30;;;;;;;8.27;5.78;;;20.40;95.00;;;;;;6157150;23;20064;-83
2021/07/09 07:53:56;;;;;;;9.95;7.70;;;20.50;95.10;;;;;;6157417;23;20105;-83
2021/07/09 07:56:21;;;;;;;9.60;6.55;;;20.60;94.40;;;;;;6157132;23;20001;-83
2021/07/09 07:58:51;;;;;;;8.75;6.00;;;20.70;94.30;;;;;;6156693;23;20025;-83
2021/07/09 08:01:25;;;;;;;8.30;5.53;;;20.80;93.90;;;;;;6156320;23;20005;-83
2021/07/09 08:03:51;;;;;;;5.45;4.00;;;20.90;93.90;;;;;;6156870;23;20494;-83
2021/07/09 08:06:16;;;;;;;6.88;4.32;;;20.90;93.80;;;;;;6131977;23;20036;-82
2021/07/09 08:08:43;;;;;;;5.32;3.80;;;21.00;93.20;;;;;;6154175;23;20080;-82
2021/07/09 08:11:10;;;;;;;5.68;4.00;;;21.00;93.00;;;;;;6155789;23;20364;-82
2021/07/09 08:13:35;;;;;;;7.30;3.97;;;21.10;93.00;;;;;;6156788;23;20005;-83
2021/07/09 08:16:01;;;;;;;5.10;3.83;;;21.20;92.90;;;;;;6132030;23;20012;-82
2021/07/09 08:18:27;;;;;;;5.95;4.18;;;21.30;92.60;;;;;;6156717;23;20071;-82
2021/07/09 08:20:53;;;;;;;6.03;3.97;;;21.40;92.10;;;;;;6131995;23;20009;-82
2021/07/09 08:23:19;;;;;;;5.97;4.20;;;21.40;91.70;;;;;;6155757;23;20039;-82
2021/07/09 08:25:44;;;;;;;6.30;3.65;;;21.50;91.40;;;;;;6107622;23;20008;-82
2021/07/09 08:28:14;;;;;;;6.05;3.92;;;21.60;91.40;;;;;;6131955;23;20005;-82
2021/07/09 08:30:41;;;;;;;5.72;3.90;;;21.60;91.40;;;;;;6201378;23;20020;-83
2021/07/09 08:33:07;;;;;;;5.85;4.38;;;21.70;91.60;;;;;;6186841;23;20005;-86
2021/07/09 08:35:33;;;;;;;5.32;4.30;;;21.80;91.50;;;;;;6213722;23;20036;-89
2021/07/09 08:37:59;;;;;;;6.25;4.45;;;21.90;90.90;;;;;;6213325;23;19996;-87
2021/07/09 08:40:25;;;;;;;6.93;4.07;;;22.00;90.40;;;;;;6212887;23;20060;-87
2021/07/09 08:42:53;;;;;;;7.65;4.93;;;22.10;90.00;;;;;;6213693;23;20000;-86
2021/07/09 08:45:18;;;;;;;6.82;3.60;;;22.10;87.00;;;;;;6163718;23;20009;-87
2021/07/09 08:47:44;;;;;;;6.20;3.97;;;22.20;88.50;;;;;;6214359;23;20004;-86
2021/07/09 08:50:11;;;;;;;5.03;3.33;;;22.20;87.90;;;;;;6214470;23;20390;-86
2021/07/09 08:52:37;;;;;;;4.05;3.00;;;22.30;88.30;;;;;;6189819;23;20005;-87
2021/07/09 08:55:13;;;;;;;6.78;4.28;;;22.40;88.60;;;;;;6215425;23;20371;-87
2021/07/09 08:57:42;;;;;;;6.40;4.05;;;22.40;86.30;;;;;;6191318;23;20083;-87
2021/07/09 09:00:34;;;;;;;4.75;3.17;;;22.50;85.70;;;;;;6214418;23;20004;-86
2021/07/09 09:03:11;;;;;;;4.95;3.25;;;22.60;86.50;;;;;;6214240;23;20028;-88
2021/07/09 09:05:37;;;;;;;6.20;3.60;;;22.60;85.80;;;;;;6213886;23;20012;-88
2021/07/09 09:08:04;;;;;;;6.03;3.63;;;22.70;86.70;;;;;;6215324;23;20418;-87
2021/07/09 09:10:45;;;;;;;6.55;4.50;;;22.80;86.90;;;;;;6215314;23;20423;-86
2021/07/09 09:13:27;;;;;;;6.95;5.07;;;22.90;84.80;;;;;;6222147;23;20067;-86
2021/07/09 09:16:13;;;;;;;7.35;5.47;;;22.90;84.60;;;;;;6234715;23;20000;-85
2021/07/09 09:18:44;;;;;;;6.22;4.63;;;23.00;84.00;;;;;;6236859;23;20056;-81
2021/07/09 09:21:18;;;;;;;;;;;23.00;85.20;;;;;;6235295;23;20088;-79
2021/07/09 09:23:53;;;;;;;6.07;4.47;;;23.10;86.80;;;;;;6222490;23;19900;-80
2021/07/09 09:26:57;;;;;;;7.70;4.60;;;23.20;87.20;;;;;;6219268;23;20020;-80
2021/07/09 09:29:25;;;;;;;9.38;5.57;;;23.30;87.00;;;;;;6075075;23;20022;-79
2021/07/09 09:32:06;;;;;;;9.13;6.63;;;23.40;87.10;;;;;;6099013;23;20014;-79
2021/07/09 09:34:41;;;;;;;9.70;5.65;;;23.50;85.50;;;;;;6172511;23;20415;-80
2021/07/09 09:37:08;;;;;;;7.50;5.70;;;23.50;84.40;;;;;;6218436;23;20032;-80
2021/07/09 09:39:34;;;;;;;6.65;5.60;;;23.50;85.10;;;;;;6217528;23;20509;-78
2021/07/09 09:42:25;;;;;;;9.85;7.20;;;23.60;85.50;;;;;;6216707;23;20015;-78
2021/07/09 09:44:52;;;;;;;9.23;6.40;;;23.70;82.90;;;;;;6215357;23;20015;-78
2021/07/09 09:47:29;;;;;;;7.65;5.70;;;23.70;83.90;;;;;;6215921;23;20012;-85
2021/07/09 09:49:58;;;;;;;9.20;7.15;;;23.80;84.60;;;;;;6215719;23;20096;-85
2021/07/09 09:52:38;;;;;;;10.80;7.22;;;23.80;82.80;;;;;;6214746;23;20096;-85
2021/07/09 09:55:13;;;;;;;9.03;6.63;;;23.90;81.90;;;;;;6191921;23;20475;-87
2021/07/09 09:57:40;;;;;;;9.65;6.93;;;23.90;82.50;;;;;;6218098;23;20228;-85
2021/07/09 10:00:08;;;;;;;7.82;5.90;;;23.90;82.60;;;;;;6215938;23;20441;-87
2021/07/09 10:02:36;;;;;;;9.43;8.07;;;23.90;82.40;;;;;;6224058;23;20031;-86
2021/07/09 10:05:04;;;;;;;11.88;8.77;;;24.00;81.70;;;;;;6239872;23;20003;-86
2021/07/09 10:07:35;;;;;;;9.10;6.88;;;24.00;80.60;;;;;;6241421;23;20036;-91
2021/07/09 10:10:02;;;;;;;10.52;6.43;;;24.00;81.60;;;;;;6237657;23;20051;-84
2021/07/09 10:12:30;;;;;;;10.07;6.50;;;24.10;82.70;;;;;;6218301;23;20001;-85
2021/07/09 10:14:56;;;;;;;8.80;6.90;;;24.10;81.60;;;;;;6216102;23;20156;-85
2021/07/09 10:17:26;;;;;;;9.75;7.68;;;24.20;81.50;;;;;;6237474;23;20000;-83
2021/07/09 10:19:54;;;;;;;11.20;8.05;;;24.20;81.00;;;;;;6241468;23;19993;-86
2021/07/09 10:22:30;;;;;;;10.18;7.95;;;24.20;80.30;;;;;;6240177;23;20004;-88
2021/07/09 10:24:59;;;;;;;8.48;6.68;;;24.20;80.60;;;;;;6238379;23;20433;-87
2021/07/09 10:27:27;;;;;;;9.18;7.30;;;24.20;80.10;;;;;;6226539;23;20005;-84
2021/07/09 10:30:29;;;;;;;10.02;7.28;;;24.20;80.60;;;;;;6193704;23;20062;-89
2021/07/09 10:33:49;;;;;;;;;;;;;;;;;;;;;
2021/07/09 10:36:58;;;;;;;7.15;6.43;;;24.30;81.50;;;;;;6234564;23;20005;-92
2021/07/09 10:39:49;;;;;;;;;;;;;;;;;;;;;
2021/07/09 10:42:23;;;;;;;9.38;7.47;;;24.20;80.00;;;;;;6241093;23;19993;-95
2021/07/09 10:45:04;;;;;;;8.40;6.95;;;24.20;80.10;;;;;;6215110;23;20043;-89
2021/07/09 10:47:56;;;;;;;8.52;7.32;;;24.20;80.60;;;;;;6214274;23;20000;-89
2021/07/09 10:50:51;;;;;;;9.60;7.43;;;24.20;81.10;;;;;;6211744;23;20005;-89
2021/07/09 10:53:20;;;;;;;7.53;6.43;;;24.30;81.10;;;;;;6212088;23;20059;-88
2021/07/09 10:56:08;;;;;;;8.88;6.97;;;24.40;81.80;;;;;;6215734;23;20023;-89
2021/07/09 10:58:44;;;;;;;8.93;7.18;;;24.50;81.20;;;;;;6213849;23;20008;-89
2021/07/09 11:01:16;;;;;;;8.10;6.55;;;24.60;80.70;;;;;;6189345;23;20028;-89
2021/07/09 11:03:45;;;;;;;9.43;7.32;;;24.70;80.80;;;;;;6213587;23;20084;-91
2021/07/09 11:06:14;;;;;;;10.85;7.40;;;24.70;79.60;;;;;;6212595;23;20014;-90
2021/07/09 11:08:53;;;;;;;10.85;7.22;;;24.70;79.20;;;;;;6187645;23;20054;-90
2021/07/09 11:11:28;;;;;;;8.80;7.10;;;24.70;79.30;;;;;;6212408;23;20004;-90
2021/07/09 11:13:57;;;;;;;7.93;6.20;;;24.60;79.80;;;;;;6212902;23;20004;-91
2021/07/09 11:16:42;;;;;;;8.05;6.53;;;24.60;80.00;;;;;;6190945;23;20001;-91
2021/07/09 11:19:10;;;;;;;8.43;6.30;;;24.70;80.40;;;;;;6216269;23;20153;-92
2021/07/09 11:21:36;;;;;;;8.27;5.95;;;24.80;78.80;;;;;;6216553;23;20000;-92
2021/07/09 11:24:05;;;;;;;7.03;5.32;;;24.80;78.70;;;;;;6217515;23;20079;-90
2021/07/09 11:26:33;;;;;;;8.57;5.93;;;24.80;76.80;;;;;;6216650;23;20011;-90
2021/07/09 11:28:59;;;;;;;7.78;6.00;;;24.90;77.60;;;;;;6216281;23;20016;-90
2021/07/09 11:31:34;;;;;;;8.65;6.00;;;24.90;77.40;;;;;;6192078;23;20092;-89
2021/07/09 11:34:07;;;;;;;7.65;6.28;;;24.90;76.30;;;;;;6217546;23;20462;-90
2021/07/09 11:36:46;;;;;;;8.65;6.45;;;25.00;76.80;;;;;;6219084;23;19997;-90
2021/07/09 11:39:22;;;;;;;9.77;6.13;;;25.10;76.70;;;;;;6216664;23;20004;-90
2021/07/09 11:41:51;;;;;;;7.68;5.85;;;25.10;76.90;;;;;;6218849;23;20008;-91
2021/07/09 11:44:27;;;;;;;7.72;5.78;;;25.20;76.90;;;;;;6220374;23;20020;-91
2021/07/09 11:46:58;;;;;;;8.68;5.97;;;25.20;77.10;;;;;;6218905;23;19997;-90
2021/07/09 11:49:27;;;;;;;8.40;6.20;;;25.30;76.70;;;;;;6220724;23;20001;-91
2021/07/09 11:51:56;;;;;;;7.95;6.00;;;25.40;76.50;;;;;;6217732;23;20084;-88
2021/07/09 11:54:28;;;;;;;7.53;5.95;;;25.50;77.80;;;;;;6215391;23;20009;-90
2021/07/09 11:56:56;;;;;;;9.18;6.80;;;25.60;78.10;;;;;;6215964;23;20004;-89
2021/07/09 11:59:22;;;;;;;9.90;6.78;;;25.60;72.50;;;;;;6214887;23;20032;-89
2021/07/09 12:02:08;;;;;;;7.85;6.10;;;25.60;71.90;;;;;;6216233;23;20336;-88
2021/07/09 12:04:54;;;;;;;6.20;4.88;;;25.60;74.00;;;;;;6214540;23;20004;-88
2021/07/09 12:07:39;;;;;;;6.20;4.47;;;25.60;74.00;;;;;;6216690;23;20076;-89
2021/07/09 12:10:09;;;;;;;4.97;3.92;;;25.60;72.50;;;;;;6190185;23;20001;-90
2021/07/09 12:12:43;;;;;;;5.50;3.60;;;25.70;71.80;;;;;;6215250;23;20115;-88
2021/07/09 12:15:17;;;;;;;5.60;3.50;;;25.80;70.10;;;;;;6215078;23;20032;-92
2021/07/09 12:17:49;;;;;;;4.95;3.35;;;25.80;72.00;;;;;;6217106;23;20043;-91
2021/07/09 12:20:47;;;;;;;6.05;4.20;;;25.90;73.00;;;;;;6219411;23;20011;-92
2021/07/09 12:23:14;;;;;;;6.32;4.28;;;26.00;71.20;;;;;;6218285;23;20015;-94
2021/07/09 12:25:52;;;;;;;5.53;4.20;;;26.10;70.90;;;;;;6215308;23;20008;-83
2021/07/09 12:28:24;;;;;;;6.05;3.85;;;26.10;71.30;;;;;;6214141;23;20087;-84
2021/07/09 12:30:54;;;;;;;6.53;4.30;;;26.20;72.00;;;;;;6214050;23;20054;-83
2021/07/09 12:33:26;;;;;;;7.30;5.00;;;26.30;72.00;;;;;;6213774;23;19997;-83
2021/07/09 12:36:01;;;;;;;10.45;7.07;;;26.40;72.60;;;;;;6213496;23;20004;-83
2021/07/09 12:38:39;;;;;;;7.00;4.72;;;26.40;70.00;;;;;;6213881;23;20042;-83
2021/07/09 12:41:07;;;;;;;6.45;4.90;;;26.50;71.40;;;;;;6215620;23;20005;-83
2021/07/09 12:43:45;;;;;;;7.25;5.10;;;26.50;72.50;;;;;;6213709;23;20074;-83
2021/07/09 12:46:18;;;;;;;6.70;5.25;;;26.60;73.60;;;;;;6215826;23;20310;-82
2021/07/09 12:48:46;;;;;;;7.30;5.40;;;26.70;73.20;;;;;;6215739;23;20004;-83
2021/07/09 12:51:45;;;;;;;6.90;5.00;;;26.70;71.00;;;;;;6213861;23;20004;-82
2021/07/09 12:54:16;;;;;;;8.53;5.80;;;26.80;70.60;;;;;;6212436;23;20005;-83
2021/07/09 12:57:00;;;;;;;7.68;5.13;;;26.80;70.40;;;;;;6214501;23;20001;-83
2021/07/09 12:59:26;;;;;;;8.80;6.82;;;26.80;70.50;;;;;;6215838;23;20002;-84
2021/07/09 13:02:01;;;;;;;8.98;6.25;;;26.80;69.40;;;;;;6215822;23;20051;-81